Time;durP1;ratioP1;P1;durP2;ratioP2;P2;SDS_P1;SDS_P2;PMS_P1;PMS_P2;Temp;Humidity;BMP_temperature;BMP_pressure;BME280_temperature;BME280_humidity;BME280_pressure;Samples;Min_cycle;Max_cycle;Signal;HPM_P1;HPM_P2
2023/12/01 00:01:21;;;;;;;4.57;1.42;;;0.60;93.10;;;;;;5097606;28;20097;-72
2023/12/01 00:03:48;;;;;;;6.88;2.28;;;0.70;93.10;;;;;;5132245;27;20081;-72
2023/12/01 00:06:14;;;;;;;3.97;1.55;;;0.60;93.10;;;;;;5132522;27;20049;-72
2023/12/01 00:08:39;;;;;;;3.90;1.50;;;0.60;93.10;;;;;;5133245;27;20039;-72
2023/12/01 00:11:05;;;;;;;4.50;1.50;;;0.50;93.10;;;;;;5097789;28;20039;-72
2023/12/01 00:13:31;;;;;;;3.70;1.63;;;0.50;93.10;;;;;;5115142;28;20044;-72
2023/12/01 00:15:59;;;;;;;4.43;1.80;;;0.50;93.10;;;;;;5115239;28;20126;-72
2023/12/01 00:18:24;;;;;;;3.88;1.50;;;0.50;93.20;;;;;;5114217;28;20067;-72
2023/12/01 00:20:50;;;;;;;3.75;1.67;;;0.50;93.10;;;;;;5097119;28;20527;-72
2023/12/01 00:23:17;;;;;;;3.17;1.13;;;0.50;93.10;;;;;;5126198;27;20395;-72
2023/12/01 00:25:42;;;;;;;2.38;1.13;;;0.50;93.20;;;;;;5135409;27;20031;-73
2023/12/01 00:28:08;;;;;;;4.00;1.38;;;0.40;93.40;;;;;;5100846;27;20043;-72
2023/12/01 00:30:34;;;;;;;2.28;1.17;;;0.50;93.20;;;;;;5134948;27;20047;-72
2023/12/01 00:33:00;;;;;;;3.20;1.20;;;0.50;93.10;;;;;;5113476;28;20070;-72
2023/12/01 00:35:25;;;;;;;4.85;1.40;;;0.50;93.10;;;;;;5113511;28;20078;-72
2023/12/01 00:37:51;;;;;;;4.05;1.67;;;0.50;93.10;;;;;;5115281;28;20164;-72
2023/12/01 00:40:17;;;;;;;2.60;1.30;;;0.50;93.40;;;;;;5133925;27;20088;-73
2023/12/01 00:42:42;;;;;;;3.92;1.70;;;0.50;93.10;;;;;;5113411;28;20044;-72
2023/12/01 00:45:09;;;;;;;4.95;1.90;;;0.40;93.10;;;;;;5096578;28;20036;-72
2023/12/01 00:47:34;;;;;;;3.50;1.25;;;0.40;93.10;;;;;;5096624;28;20047;-72
2023/12/01 00:50:00;;;;;;;3.97;1.77;;;0.40;93.10;;;;;;5127606;27;20024;-72
2023/12/01 00:52:26;;;;;;;4.00;1.60;;;0.40;93.10;;;;;;5135055;27;20050;-72
2023/12/01 00:54:52;;;;;;;5.50;1.70;;;0.40;93.20;;;;;;5116886;28;20059;-72
2023/12/01 00:57:17;;;;;;;5.40;1.50;;;0.40;93.20;;;;;;5116692;27;20122;-73
2023/12/01 00:59:43;;;;;;;4.75;1.70;;;0.40;93.20;;;;;;5134895;27;20062;-72
2023/12/01 01:02:09;;;;;;;5.55;2.00;;;0.40;93.20;;;;;;5116315;27;20067;-73
2023/12/01 01:04:34;;;;;;;5.63;1.90;;;0.40;93.10;;;;;;5116317;27;20096;-72
2023/12/01 01:07:00;;;;;;;4.25;1.63;;;0.40;93.10;;;;;;5099577;28;20542;-72
2023/12/01 01:09:26;;;;;;;4.68;1.73;;;0.40;93.10;;;;;;5134575;27;20096;-72
2023/12/01 01:11:52;;;;;;;3.88;1.35;;;0.40;93.10;;;;;;5116047;28;20035;-72
2023/12/01 01:14:18;;;;;;;3.72;1.23;;;0.40;93.10;;;;;;5112788;28;20130;-72
2023/12/01 01:16:43;;;;;;;4.60;1.90;;;0.40;93.10;;;;;;5113295;28;20151;-72
2023/12/01 01:19:09;;;;;;;3.65;1.35;;;0.40;93.10;;;;;;5112719;28;20056;-72
2023/12/01 01:21:35;;;;;;;6.30;1.88;;;0.40;93.10;;;;;;5094994;28;20043;-72
2023/12/01 01:24:00;;;;;;;4.90;1.70;;;0.40;93.10;;;;;;5112471;28;20062;-72
2023/12/01 01:26:26;;;;;;;5.15;1.88;;;0.40;93.00;;;;;;5095384;28;20440;-72
2023/12/01 01:28:52;;;;;;;7.20;2.38;;;0.40;93.00;;;;;;5114236;28;20031;-72
2023/12/01 01:31:18;;;;;;;5.07;1.75;;;0.40;93.10;;;;;;5114213;27;20031;-72
2023/12/01 01:33:43;;;;;;;5.78;1.95;;;0.40;93.10;;;;;;5134487;27;20095;-72
2023/12/01 01:36:10;;;;;;;6.50;1.67;;;0.40;93.10;;;;;;5099203;27;20043;-72
2023/12/01 01:38:37;;;;;;;5.88;2.15;;;0.30;93.10;;;;;;5134834;27;20071;-72
2023/12/01 01:41:03;;;;;;;6.03;1.98;;;0.40;93.10;;;;;;5134877;27;20043;-72
2023/12/01 01:43:29;;;;;;;6.60;2.03;;;0.40;93.10;;;;;;5116174;27;20104;-72
2023/12/01 01:46:05;;;;;;;4.93;1.70;;;0.30;93.00;;;;;;5134359;27;20031;-72
2023/12/01 01:48:32;;;;;;;6.10;1.73;;;0.30;93.00;;;;;;5115966;27;20375;-73
2023/12/01 01:51:02;;;;;;;6.10;2.00;;;0.30;93.00;;;;;;5115708;27;20047;-73
2023/12/01 01:53:31;;;;;;;4.47;1.40;;;0.30;93.10;;;;;;5134016;27;20078;-72
2023/12/01 01:56:00;;;;;;;4.20;1.45;;;0.30;93.10;;;;;;5133813;27;20054;-73
2023/12/01 01:58:26;;;;;;;5.30;1.52;;;0.30;93.10;;;;;;5134041;27;20042;-72
2023/12/01 02:00:52;;;;;;;5.25;1.75;;;0.40;93.10;;;;;;5134332;27;20039;-73
2023/12/01 02:03:19;;;;;;;6.90;2.10;;;0.40;93.10;;;;;;5133915;27;20108;-72
2023/12/01 02:05:47;;;;;;;5.28;1.58;;;0.40;93.00;;;;;;5133717;27;20081;-73
2023/12/01 02:08:24;;;;;;;7.25;2.47;;;0.30;93.00;;;;;;5112494;27;20437;-73
2023/12/01 02:10:51;;;;;;;5.63;2.00;;;0.30;93.00;;;;;;5098854;28;20494;-72
2023/12/01 02:13:17;;;;;;;6.93;1.90;;;0.30;93.00;;;;;;5098460;27;20513;-72
2023/12/01 02:15:43;;;;;;;11.52;2.70;;;0.30;93.00;;;;;;5133634;27;20042;-72
2023/12/01 02:18:29;;;;;;;5.95;2.00;;;0.30;93.00;;;;;;5115731;28;20049;-72
2023/12/01 02:20:56;;;;;;;6.38;1.73;;;0.40;93.10;;;;;;5131488;27;20455;-72
2023/12/01 02:23:22;;;;;;;5.18;1.52;;;0.40;93.10;;;;;;5113197;28;20043;-72
2023/12/01 02:25:48;;;;;;;3.80;1.45;;;0.40;93.00;;;;;;5115593;27;20065;-72
2023/12/01 02:28:14;;;;;;;6.20;2.13;;;0.40;93.00;;;;;;5133521;27;20080;-72
2023/12/01 02:30:42;;;;;;;8.10;2.75;;;0.50;93.00;;;;;;5111792;28;20069;-72
2023/12/01 02:33:15;;;;;;;6.40;2.33;;;0.50;93.00;;;;;;5112274;28;20043;-72
2023/12/01 02:35:46;;;;;;;5.63;1.80;;;0.50;93.00;;;;;;5112125;28;20096;-72
2023/12/01 02:38:12;;;;;;;4.82;1.67;;;0.40;92.90;;;;;;5077874;28;20085;-72
2023/12/01 02:40:42;;;;;;;6.13;2.10;;;0.50;93.00;;;;;;5112053;28;20047;-73
2023/12/01 02:43:10;;;;;;;5.35;1.92;;;0.60;93.00;;;;;;5116674;27;20540;-72
2023/12/01 02:45:36;;;;;;;5.18;1.75;;;0.60;93.00;;;;;;5133096;27;20062;-72
2023/12/01 02:48:02;;;;;;;6.25;1.98;;;0.60;92.90;;;;;;5113738;27;20502;-73
2023/12/01 02:50:28;;;;;;;7.75;2.15;;;0.60;92.90;;;;;;5133369;27;20039;-72
2023/12/01 02:52:53;;;;;;;6.28;2.10;;;0.60;92.90;;;;;;5133495;27;20496;-73
2023/12/01 02:55:19;;;;;;;8.70;2.45;;;0.60;92.90;;;;;;5114680;27;20047;-72
2023/12/01 02:57:45;;;;;;;5.18;2.42;;;0.70;92.90;;;;;;5133201;27;20064;-72
2023/12/01 03:00:13;;;;;;;6.28;2.00;;;0.60;92.80;;;;;;5114688;27;20058;-72
2023/12/01 03:02:40;;;;;;;4.45;1.80;;;0.60;92.80;;;;;;5132520;27;20410;-72
2023/12/01 03:05:07;;;;;;;4.25;1.50;;;0.70;92.80;;;;;;5097490;27;20418;-72
2023/12/01 03:07:33;;;;;;;5.10;1.70;;;0.70;92.80;;;;;;5111012;28;20451;-72
2023/12/01 03:09:59;;;;;;;4.35;1.33;;;0.70;92.80;;;;;;5129013;27;20039;-72
2023/12/01 03:12:25;;;;;;;3.65;1.60;;;0.70;92.80;;;;;;5111339;28;20532;-72
2023/12/01 03:14:50;;;;;;;4.70;1.90;;;0.80;92.80;;;;;;5111179;28;20403;-72
2023/12/01 03:17:16;;;;;;;3.63;1.58;;;0.80;92.80;;;;;;5112644;28;20127;-72
2023/12/01 03:19:45;;;;;;;3.95;1.52;;;0.80;92.80;;;;;;5094141;28;20031;-72
2023/12/01 03:22:11;;;;;;;4.60;1.60;;;0.80;92.80;;;;;;5132299;27;20076;-72
2023/12/01 03:24:37;;;;;;;4.13;1.60;;;0.90;92.80;;;;;;5132545;27;20043;-72
2023/12/01 03:27:04;;;;;;;3.95;1.63;;;0.80;92.70;;;;;;5132813;27;20516;-73
2023/12/01 03:29:32;;;;;;;5.25;1.67;;;0.90;92.80;;;;;;5132997;27;20039;-72
2023/12/01 03:32:01;;;;;;;4.55;1.60;;;0.90;92.80;;;;;;5094257;28;20479;-72
2023/12/01 03:34:30;;;;;;;3.58;1.33;;;1.00;92.80;;;;;;5130221;27;20043;-73
2023/12/01 03:36:56;;;;;;;4.57;1.80;;;0.90;92.70;;;;;;5094253;28;20044;-72
2023/12/01 03:39:22;;;;;;;3.50;1.63;;;1.00;92.80;;;;;;5118560;27;20031;-73
2023/12/01 03:41:48;;;;;;;4.00;1.50;;;1.00;92.80;;;;;;5110640;28;20066;-72
2023/12/01 03:44:15;;;;;;;4.95;2.05;;;0.90;92.70;;;;;;5095257;28;20047;-72
2023/12/01 03:46:41;;;;;;;4.63;1.75;;;0.90;92.70;;;;;;5133469;27;20043;-72
2023/12/01 03:49:06;;;;;;;4.10;1.35;;;0.90;92.70;;;;;;5136014;27;20043;-72
2023/12/01 03:51:32;;;;;;;4.32;1.60;;;1.00;92.80;;;;;;5117728;27;20036;-72
2023/12/01 03:53:59;;;;;;;3.17;1.20;;;1.00;92.70;;;;;;5097025;28;20081;-72
2023/12/01 03:56:25;;;;;;;3.50;1.27;;;1.10;92.70;;;;;;5134949;27;20130;-72
2023/12/01 03:58:54;;;;;;;3.65;1.30;;;1.00;92.70;;;;;;5114676;28;20433;-72
2023/12/01 04:01:21;;;;;;;3.72;1.35;;;1.10;93.00;;;;;;5114210;28;20509;-72
2023/12/01 04:03:47;;;;;;;4.50;1.35;;;1.10;92.80;;;;;;5116293;27;20051;-72
2023/12/01 04:06:13;;;;;;;4.20;1.67;;;1.00;92.70;;;;;;5135867;27;20042;-73
2023/12/01 04:08:38;;;;;;;3.35;1.30;;;1.10;92.70;;;;;;5100375;27;20069;-72
2023/12/01 04:11:06;;;;;;;3.60;1.38;;;1.10;92.70;;;;;;5100229;28;20406;-72
2023/12/01 04:13:32;;;;;;;3.22;1.60;;;1.10;92.70;;;;;;5135456;27;20043;-72
2023/12/01 04:15:59;;;;;;;3.28;1.33;;;1.10;92.70;;;;;;5117032;28;20126;-73
2023/12/01 04:18:27;;;;;;;2.70;1.30;;;1.10;92.70;;;;;;5135372;27;20458;-72
2023/12/01 04:20:54;;;;;;;4.40;1.60;;;1.10;92.70;;;;;;5117039;27;20084;-72
2023/12/01 04:23:20;;;;;;;3.67;1.50;;;1.10;92.70;;;;;;5135954;27;20406;-72
2023/12/01 04:25:47;;;;;;;2.08;1.00;;;1.10;92.70;;;;;;5117126;27;20035;-72
2023/12/01 04:28:14;;;;;;;3.85;1.50;;;1.10;92.70;;;;;;5135374;27;20450;-72
2023/12/01 04:30:40;;;;;;;2.95;1.30;;;1.10;92.70;;;;;;5135625;27;20035;-72
2023/12/01 04:33:06;;;;;;;4.00;1.60;;;1.10;92.70;;;;;;5135259;27;20076;-72
2023/12/01 04:35:33;;;;;;;4.57;1.42;;;1.10;92.70;;;;;;5135430;27;20072;-72
2023/12/01 04:38:03;;;;;;;3.33;1.45;;;1.10;92.70;;;;;;5116762;28;20047;-73
2023/12/01 04:40:29;;;;;;;5.28;1.80;;;1.20;92.70;;;;;;5116539;27;20490;-72
2023/12/01 04:43:01;;;;;;;3.33;1.45;;;1.20;92.70;;;;;;5100302;27;20039;-72
2023/12/01 04:45:31;;;;;;;4.45;1.77;;;1.20;92.70;;;;;;5112180;28;20043;-73
2023/12/01 04:47:59;;;;;;;4.32;1.52;;;1.20;92.70;;;;;;5096782;28;20062;-73
2023/12/01 04:50:28;;;;;;;4.13;1.60;;;1.20;92.70;;;;;;5113857;28;20536;-72
2023/12/01 04:52:58;;;;;;;4.65;1.52;;;1.20;92.70;;;;;;5113698;28;20051;-73
2023/12/01 04:55:26;;;;;;;6.32;2.30;;;1.20;92.70;;;;;;5113173;28;20044;-72
2023/12/01 04:57:52;;;;;;;6.75;1.90;;;1.20;92.60;;;;;;5128837;27;20041;-73
2023/12/01 05:00:21;;;;;;;3.78;1.40;;;1.20;92.60;;;;;;5116982;27;20051;-72
2023/12/01 05:02:58;;;;;;;4.30;1.50;;;1.20;92.60;;;;;;5117077;27;20046;-72
2023/12/01 05:05:28;;;;;;;3.97;1.55;;;1.20;92.60;;;;;;5110580;28;20036;-73
2023/12/01 05:07:57;;;;;;;4.88;1.92;;;1.20;92.60;;;;;;5116747;28;20483;-72
2023/12/01 05:10:27;;;;;;;3.53;1.65;;;1.20;92.70;;;;;;5096425;28;20031;-72
2023/12/01 05:12:55;;;;;;;4.10;1.77;;;1.20;92.60;;;;;;5134636;27;20046;-73
2023/12/01 05:15:24;;;;;;;4.20;1.65;;;1.20;92.60;;;;;;5112897;28;20410;-72
2023/12/01 05:17:53;;;;;;;5.00;1.95;;;1.30;92.60;;;;;;5096211;28;20086;-73
2023/12/01 05:20:20;;;;;;;5.07;1.60;;;1.30;92.60;;;;;;5113257;28;20570;-73
2023/12/01 05:22:48;;;;;;;4.78;1.95;;;1.20;92.60;;;;;;5112939;28;20081;-73
2023/12/01 05:25:15;;;;;;;5.03;1.85;;;1.20;92.60;;;;;;5116604;27;20036;-72
2023/12/01 05:27:50;;;;;;;6.75;2.30;;;1.20;92.60;;;;;;5116318;28;20047;-73
2023/12/01 05:30:17;;;;;;;4.80;1.90;;;1.20;92.60;;;;;;5113308;27;20047;-72
2023/12/01 05:32:45;;;;;;;4.47;1.70;;;1.20;92.60;;;;;;5116762;28;20045;-72
2023/12/01 05:35:12;;;;;;;4.28;1.70;;;1.20;92.60;;;;;;5135050;27;20072;-73
2023/12/01 05:37:40;;;;;;;4.13;1.65;;;1.30;92.60;;;;;;5116682;28;20053;-73
2023/12/01 05:40:10;;;;;;;4.72;2.10;;;1.30;92.60;;;;;;5098907;28;20439;-72
2023/12/01 05:42:37;;;;;;;4.78;1.90;;;1.30;92.60;;;;;;5134426;27;20490;-72
2023/12/01 05:45:04;;;;;;;4.05;1.80;;;1.40;92.60;;;;;;5134503;27;20039;-72
2023/12/01 05:47:30;;;;;;;5.63;2.03;;;1.30;92.60;;;;;;5130877;27;20036;-72
2023/12/01 05:49:56;;;;;;;6.50;1.88;;;1.30;92.60;;;;;;5115557;27;20050;-73
2023/12/01 05:52:21;;;;;;;5.85;2.00;;;1.20;92.60;;;;;;5134589;27;20059;-73
2023/12/01 05:54:49;;;;;;;4.65;2.05;;;1.30;92.60;;;;;;5112322;28;20130;-73
2023/12/01 05:57:15;;;;;;;5.97;2.05;;;1.30;92.60;;;;;;5112487;28;20044;-73
2023/12/01 05:59:42;;;;;;;4.47;1.70;;;1.40;92.60;;;;;;5114077;28;20039;-72
2023/12/01 06:02:11;;;;;;;6.25;2.17;;;1.30;92.50;;;;;;5133097;27;20046;-72
2023/12/01 06:04:38;;;;;;;4.18;1.75;;;1.30;92.50;;;;;;5134421;27;20050;-72
2023/12/01 06:07:07;;;;;;;4.10;1.45;;;1.30;92.50;;;;;;5115519;28;20039;-74
2023/12/01 06:09:34;;;;;;;5.82;2.03;;;1.30;92.60;;;;;;5133976;27;20031;-72
2023/12/01 06:12:00;;;;;;;5.20;2.03;;;1.30;92.50;;;;;;5115797;27;20046;-72
2023/12/01 06:14:26;;;;;;;5.13;1.90;;;1.30;92.60;;;;;;5115471;27;20122;-73
2023/12/01 06:16:52;;;;;;;6.05;2.38;;;1.30;92.50;;;;;;5133674;27;20410;-73
2023/12/01 06:19:18;;;;;;;5.88;2.33;;;1.30;92.50;;;;;;5111929;28;20050;-72
2023/12/01 06:21:43;;;;;;;5.28;1.92;;;1.20;92.50;;;;;;5120412;27;20042;-73
2023/12/01 06:24:09;;;;;;;4.85;2.10;;;1.30;92.50;;;;;;5098263;28;20039;-73
2023/12/01 06:26:35;;;;;;;4.93;2.33;;;1.30;92.50;;;;;;5115959;28;20040;-72
2023/12/01 06:29:01;;;;;;;5.03;2.00;;;1.30;92.50;;;;;;5115135;27;20393;-72
2023/12/01 06:31:30;;;;;;;6.05;2.17;;;1.30;92.50;;;;;;5133616;27;20118;-72
2023/12/01 06:33:55;;;;;;;3.63;1.75;;;1.20;92.50;;;;;;5133614;27;20051;-73
2023/12/01 06:36:21;;;;;;;4.95;2.40;;;1.20;92.50;;;;;;5115454;27;20134;-72
2023/12/01 06:38:47;;;;;;;3.42;1.60;;;1.20;92.50;;;;;;5115203;27;20451;-72
2023/12/01 06:41:12;;;;;;;5.03;2.00;;;1.20;92.50;;;;;;5115032;28;20043;-72
2023/12/01 06:43:38;;;;;;;4.45;1.90;;;1.20;92.50;;;;;;5115024;28;20398;-72
2023/12/01 06:46:04;;;;;;;5.20;1.92;;;1.20;92.50;;;;;;5133458;27;20035;-72
2023/12/01 06:48:30;;;;;;;4.68;1.63;;;1.20;92.50;;;;;;5133218;27;20509;-72
2023/12/01 06:50:56;;;;;;;4.93;1.98;;;1.10;92.50;;;;;;5133371;27;20473;-72
2023/12/01 06:53:21;;;;;;;4.05;1.50;;;1.10;92.40;;;;;;5133804;27;20049;-72
2023/12/01 06:55:47;;;;;;;4.78;2.05;;;1.10;92.40;;;;;;5111589;28;20040;-72
2023/12/01 06:58:13;;;;;;;4.97;2.20;;;1.10;92.40;;;;;;5111392;28;20081;-71
2023/12/01 07:00:39;;;;;;;4.30;1.67;;;1.10;92.40;;;;;;5112581;28;20046;-71
2023/12/01 07:03:08;;;;;;;4.22;1.60;;;1.00;92.40;;;;;;5111130;28;20054;-72
2023/12/01 07:05:35;;;;;;;4.20;1.98;;;1.00;92.40;;;;;;5112584;28;20035;-72
2023/12/01 07:08:03;;;;;;;4.18;1.48;;;1.10;92.40;;;;;;5114163;27;20456;-72
2023/12/01 07:10:32;;;;;;;4.57;1.75;;;1.00;92.40;;;;;;5115039;27;20047;-72
2023/12/01 07:13:01;;;;;;;4.43;1.63;;;1.00;92.40;;;;;;5132902;27;20038;-72
2023/12/01 07:15:30;;;;;;;3.88;1.50;;;1.00;92.40;;;;;;5114703;28;20042;-73
2023/12/01 07:18:00;;;;;;;4.38;1.63;;;1.00;92.40;;;;;;5133000;27;20126;-72
2023/12/01 07:20:26;;;;;;;4.38;1.60;;;0.90;92.30;;;;;;5091465;28;20404;-73
2023/12/01 07:22:53;;;;;;;4.55;1.58;;;0.90;92.30;;;;;;5093427;28;20165;-72
2023/12/01 07:25:21;;;;;;;3.65;1.25;;;1.00;92.40;;;;;;5076827;28;20044;-73
2023/12/01 07:27:55;;;;;;;3.40;1.60;;;1.00;92.40;;;;;;5093306;28;20066;-73
2023/12/01 07:30:21;;;;;;;2.55;1.20;;;0.90;92.30;;;;;;5077214;28;20047;-73
2023/12/01 07:32:48;;;;;;;3.72;1.27;;;1.00;92.30;;;;;;5093686;28;20472;-73
2023/12/01 07:35:14;;;;;;;3.47;1.50;;;1.00;92.30;;;;;;5076591;28;20447;-72
2023/12/01 07:37:42;;;;;;;3.05;1.13;;;1.00;92.40;;;;;;5074474;28;20048;-73
2023/12/01 07:40:10;;;;;;;4.47;1.27;;;0.90;92.30;;;;;;5076227;28;20051;-72
2023/12/01 07:42:36;;;;;;;3.60;1.23;;;0.90;92.30;;;;;;5076295;28;20063;-73
2023/12/01 07:45:02;;;;;;;2.40;1.08;;;0.90;92.30;;;;;;5059539;28;20032;-72
2023/12/01 07:47:28;;;;;;;2.92;1.40;;;0.90;92.30;;;;;;5076496;28;20047;-73
2023/12/01 07:49:54;;;;;;;2.25;1.13;;;0.90;92.30;;;;;;5093798;28;20036;-72
2023/12/01 07:52:19;;;;;;;2.30;1.05;;;0.90;92.30;;;;;;5113821;28;20126;-72
2023/12/01 07:54:47;;;;;;;4.07;1.23;;;0.90;92.30;;;;;;5117595;27;20491;-73
2023/12/01 07:57:13;;;;;;;3.05;1.27;;;0.90;92.30;;;;;;5136698;27;20467;-73
2023/12/01 07:59:39;;;;;;;2.88;1.25;;;0.80;92.30;;;;;;5135969;27;20043;-74
2023/12/01 08:02:04;;;;;;;2.80;1.17;;;0.80;92.30;;;;;;5100600;27;20054;-72
2023/12/01 08:04:31;;;;;;;2.95;1.50;;;0.80;92.30;;;;;;5114248;28;20395;-72
2023/12/01 08:06:59;;;;;;;2.35;1.08;;;0.70;92.30;;;;;;5123050;27;20039;-72
2023/12/01 08:09:25;;;;;;;3.00;1.33;;;0.70;92.30;;;;;;5117896;27;20039;-73
2023/12/01 08:11:51;;;;;;;3.83;1.55;;;0.70;92.30;;;;;;5136362;27;20496;-73
2023/12/01 08:14:16;;;;;;;2.45;0.93;;;0.80;92.30;;;;;;5135626;27;20237;-72
2023/12/01 08:16:42;;;;;;;3.35;1.25;;;0.70;92.30;;;;;;5136140;27;20039;-72
2023/12/01 08:19:09;;;;;;;2.90;1.33;;;0.70;92.30;;;;;;5136029;27;20150;-71
2023/12/01 08:21:36;;;;;;;3.05;1.17;;;0.70;92.30;;;;;;5117224;28;20074;-72
2023/12/01 08:24:04;;;;;;;3.05;1.20;;;0.70;92.20;;;;;;5100381;27;20092;-73
2023/12/01 08:26:30;;;;;;;3.08;1.20;;;0.60;92.30;;;;;;5136168;27;20046;-73
2023/12/01 08:28:55;;;;;;;3.38;1.20;;;0.60;92.30;;;;;;5100318;27;20047;-71
2023/12/01 08:31:21;;;;;;;2.70;1.33;;;0.60;92.20;;;;;;5113509;28;20055;-71
2023/12/01 08:33:47;;;;;;;2.35;1.10;;;0.50;92.20;;;;;;5096632;28;20130;-71
2023/12/01 08:36:13;;;;;;;4.68;1.50;;;0.50;92.30;;;;;;5113713;28;20445;-72
2023/12/01 08:38:42;;;;;;;2.75;1.30;;;0.60;92.30;;;;;;5113541;28;20047;-72
2023/12/01 08:41:08;;;;;;;3.30;1.33;;;0.50;92.20;;;;;;5113416;28;20051;-72
2023/12/01 08:43:33;;;;;;;3.65;1.60;;;0.60;92.30;;;;;;5096467;28;20048;-72
2023/12/01 08:45:59;;;;;;;3.33;1.20;;;0.50;92.20;;;;;;5120232;27;20044;-73
2023/12/01 08:48:25;;;;;;;2.08;0.98;;;0.50;92.10;;;;;;5135282;27;20039;-72
2023/12/01 08:50:50;;;;;;;3.45;1.40;;;0.40;92.20;;;;;;5117109;27;20039;-72
2023/12/01 08:53:16;;;;;;;4.07;1.30;;;0.40;92.20;;;;;;5135267;27;20122;-73
2023/12/01 08:55:42;;;;;;;3.17;1.48;;;0.40;92.20;;;;;;5116866;27;20039;-72
2023/12/01 08:58:08;;;;;;;3.72;1.33;;;0.40;92.20;;;;;;5135119;27;20039;-72
2023/12/01 09:00:35;;;;;;;1.95;1.05;;;0.40;92.20;;;;;;5100472;28;20043;-72
2023/12/01 09:03:00;;;;;;;3.55;1.30;;;0.40;92.20;;;;;;5113486;28;20436;-73
2023/12/01 09:05:26;;;;;;;1.90;0.93;;;0.40;92.20;;;;;;5098611;27;20089;-72
2023/12/01 09:07:52;;;;;;;2.42;1.15;;;0.50;92.20;;;;;;5113634;28;20043;-72
2023/12/01 09:10:22;;;;;;;2.13;1.00;;;0.50;92.10;;;;;;5113546;28;20057;-73
2023/12/01 09:12:49;;;;;;;2.97;1.20;;;0.50;92.10;;;;;;5112897;28;20039;-73
2023/12/01 09:15:15;;;;;;;2.90;1.20;;;0.50;92.00;;;;;;5113158;28;20047;-73
2023/12/01 09:17:42;;;;;;;2.92;1.15;;;0.50;92.00;;;;;;5112869;28;20042;-72
2023/12/01 09:20:09;;;;;;;1.95;0.98;;;0.60;92.00;;;;;;5112935;28;20040;-73
2023/12/01 09:22:36;;;;;;;3.17;1.20;;;0.60;92.00;;;;;;5130307;27;20042;-73
2023/12/01 09:25:03;;;;;;;2.75;1.20;;;0.60;92.00;;;;;;5135161;27;20103;-73
2023/12/01 09:27:28;;;;;;;2.20;0.88;;;0.60;91.90;;;;;;5116725;27;20039;-72
2023/12/01 09:29:54;;;;;;;2.90;1.10;;;0.60;91.90;;;;;;5099331;27;20117;-73
2023/12/01 09:32:20;;;;;;;2.60;1.23;;;0.60;91.90;;;;;;5134737;27;20063;-72
2023/12/01 09:34:46;;;;;;;3.35;1.48;;;0.70;91.90;;;;;;5134504;27;20063;-72
2023/12/01 09:37:12;;;;;;;4.05;1.20;;;0.60;91.80;;;;;;5134548;27;20482;-73
2023/12/01 09:39:38;;;;;;;2.90;0.93;;;0.60;91.80;;;;;;5115886;27;20426;-72
2023/12/01 09:42:06;;;;;;;3.58;1.20;;;0.60;91.90;;;;;;5133475;27;20051;-72
2023/12/01 09:44:32;;;;;;;2.55;1.13;;;0.60;91.90;;;;;;5133843;27;20047;-72
2023/12/01 09:47:02;;;;;;;1.40;0.65;;;0.70;91.80;;;;;;5134724;27;20031;-72
2023/12/01 09:49:33;;;;;;;3.28;1.27;;;0.60;91.70;;;;;;5134107;27;20104;-74
2023/12/01 09:52:01;;;;;;;2.83;1.15;;;0.60;91.70;;;;;;5134368;27;20035;-74
2023/12/01 09:54:29;;;;;;;2.83;1.15;;;0.60;91.80;;;;;;5115680;28;20376;-72
2023/12/01 09:57:04;;;;;;;3.20;1.10;;;0.50;91.80;;;;;;5098927;28;20039;-72
2023/12/01 09:59:30;;;;;;;3.22;1.15;;;0.60;91.90;;;;;;5117018;27;20035;-72
2023/12/01 10:01:55;;;;;;;2.85;0.90;;;0.60;91.90;;;;;;5133899;27;20127;-72
2023/12/01 10:04:21;;;;;;;2.35;1.02;;;0.60;91.80;;;;;;5098445;27;20047;-73
2023/12/01 10:06:48;;;;;;;2.58;1.10;;;0.70;91.80;;;;;;5133984;27;20118;-72
2023/12/01 10:09:25;;;;;;;3.58;1.50;;;0.70;91.80;;;;;;5133832;27;20410;-71
2023/12/01 10:12:07;;;;;;;2.28;1.00;;;0.70;91.70;;;;;;5111930;28;20121;-71
2023/12/01 10:14:33;;;;;;;;;;;0.70;91.70;;;;;;5112522;28;20040;-71
2023/12/01 10:17:03;;;;;;;2.70;0.90;;;0.80;91.70;;;;;;5123205;27;19915;-71
2023/12/01 10:19:33;;;;;;;1.95;0.75;;;0.80;91.70;;;;;;5115374;27;20130;-72
2023/12/01 10:22:00;;;;;;;2.92;1.27;;;0.80;91.60;;;;;;5130068;27;20058;-71
2023/12/01 10:24:26;;;;;;;3.08;1.02;;;1.00;91.60;;;;;;5133704;27;20050;-71
2023/12/01 10:26:55;;;;;;;2.00;0.90;;;1.00;91.50;;;;;;5115279;27;20043;-72
2023/12/01 10:29:30;;;;;;;1.80;1.17;;;1.00;91.50;;;;;;5115935;27;20080;-72
2023/12/01 10:32:02;;;;;;;3.92;1.40;;;1.10;91.40;;;;;;5133621;27;20509;-72
2023/12/01 10:34:29;;;;;;;2.78;1.20;;;1.10;91.40;;;;;;5133565;27;20035;-72
2023/12/01 10:36:55;;;;;;;3.30;1.35;;;1.10;91.30;;;;;;5094723;28;20051;-72
2023/12/01 10:39:24;;;;;;;2.95;1.38;;;1.10;91.30;;;;;;5111491;28;20144;-72
2023/12/01 10:41:50;;;;;;;2.63;1.25;;;1.20;91.30;;;;;;5112813;28;20044;-71
2023/12/01 10:44:17;;;;;;;4.07;1.40;;;1.10;91.20;;;;;;5131538;27;20051;-72
2023/12/01 10:46:46;;;;;;;3.35;1.38;;;1.10;91.30;;;;;;5115771;27;20071;-71
2023/12/01 10:49:15;;;;;;;4.53;1.35;;;1.20;91.20;;;;;;5133232;27;20062;-72
2023/12/01 10:51:42;;;;;;;2.33;1.05;;;1.10;91.20;;;;;;5098187;27;20042;-72
2023/12/01 10:54:10;;;;;;;3.33;1.73;;;1.00;91.20;;;;;;5132683;27;20474;-72
2023/12/01 10:56:59;;;;;;;4.57;1.70;;;1.10;91.30;;;;;;5133206;27;20406;-72
2023/12/01 10:59:26;;;;;;;2.15;1.08;;;1.00;91.30;;;;;;5117539;27;20043;-72
2023/12/01 11:01:53;;;;;;;3.83;1.40;;;1.00;91.30;;;;;;5114405;27;20490;-72
2023/12/01 11:04:26;;;;;;;4.38;1.48;;;0.90;91.40;;;;;;5133326;27;20047;-72
2023/12/01 11:07:13;;;;;;;3.40;1.25;;;0.90;91.40;;;;;;5133237;27;20062;-72
2023/12/01 11:10:07;;;;;;;3.92;1.80;;;0.90;91.40;;;;;;5133263;27;20035;-72
2023/12/01 11:13:04;;;;;;;3.47;1.83;;;0.90;91.40;;;;;;5111379;28;20487;-72
2023/12/01 11:15:34;;;;;;;3.15;1.17;;;1.00;91.40;;;;;;5113529;27;20039;-72
2023/12/01 11:18:00;;;;;;;2.35;1.25;;;1.00;91.40;;;;;;5114594;27;20044;-73
2023/12/01 11:20:35;;;;;;;3.85;1.58;;;1.00;91.40;;;;;;5098068;27;20076;-73
2023/12/01 11:23:05;;;;;;;2.50;1.20;;;1.00;91.30;;;;;;5133335;27;20039;-72
2023/12/01 11:25:50;;;;;;;2.67;1.48;;;0.90;91.30;;;;;;5115107;27;20454;-72
2023/12/01 11:28:20;;;;;;;1.83;1.08;;;1.00;91.50;;;;;;5094378;28;20040;-73
2023/12/01 11:31:08;;;;;;;4.22;1.70;;;1.00;91.30;;;;;;5130125;27;20065;-72
2023/12/01 11:33:47;;;;;;;3.42;1.30;;;0.80;91.30;;;;;;5132999;27;20039;-72
2023/12/01 11:36:36;;;;;;;4.47;1.73;;;0.90;91.40;;;;;;5112331;27;20067;-73
2023/12/01 11:39:17;;;;;;;3.60;1.40;;;0.80;91.40;;;;;;5132193;27;20046;-72
2023/12/01 11:41:47;;;;;;;2.42;1.20;;;0.90;91.40;;;;;;5130532;27;20050;-72
2023/12/01 11:44:34;;;;;;;4.05;1.40;;;0.80;91.30;;;;;;5110588;28;20155;-72
2023/12/01 11:47:04;;;;;;;2.95;1.27;;;0.90;91.40;;;;;;5118980;27;20031;-72
2023/12/01 11:49:33;;;;;;;3.13;1.15;;;0.90;91.40;;;;;;5132770;27;20031;-72
2023/12/01 11:52:01;;;;;;;1.75;0.95;;;0.90;91.40;;;;;;5132345;27;20032;-73
2023/12/01 11:54:32;;;;;;;3.03;1.30;;;0.90;91.30;;;;;;5097220;27;20427;-74
2023/12/01 11:57:09;;;;;;;2.25;1.10;;;0.90;91.30;;;;;;5132277;27;20043;-72
2023/12/01 11:59:35;;;;;;;2.25;1.08;;;1.00;91.30;;;;;;5132509;27;20126;-72
2023/12/01 12:02:02;;;;;;;2.45;1.05;;;1.00;91.40;;;;;;5132458;27;20394;-72
2023/12/01 12:04:32;;;;;;;2.08;0.80;;;1.00;91.30;;;;;;5094011;28;20067;-71
2023/12/01 12:07:01;;;;;;;3.00;1.30;;;1.00;91.20;;;;;;5132029;27;20057;-72
2023/12/01 12:09:31;;;;;;;2.70;1.23;;;1.00;91.20;;;;;;5100758;28;20096;-72
2023/12/01 12:12:01;;;;;;;4.03;1.38;;;0.90;91.20;;;;;;5117591;28;20042;-72
2023/12/01 12:14:29;;;;;;;2.80;1.20;;;1.00;91.20;;;;;;5135846;27;20046;-72
2023/12/01 12:16:55;;;;;;;2.45;1.05;;;0.90;91.20;;;;;;5100596;27;20039;-72
2023/12/01 12:19:21;;;;;;;1.83;1.05;;;1.00;91.20;;;;;;5117767;27;20051;-72
2023/12/01 12:21:48;;;;;;;3.15;1.08;;;1.00;91.20;;;;;;5100785;27;20494;-72
2023/12/01 12:24:15;;;;;;;3.08;1.30;;;1.00;91.30;;;;;;5136275;27;20089;-72
2023/12/01 12:26:41;;;;;;;2.42;0.90;;;1.00;91.20;;;;;;5117681;27;20091;-72
2023/12/01 12:29:08;;;;;;;3.47;1.23;;;1.00;91.20;;;;;;5096607;28;20048;-72
2023/12/01 12:31:36;;;;;;;1.83;1.00;;;1.00;91.20;;;;;;5113809;28;20044;-72
2023/12/01 12:34:04;;;;;;;2.85;1.50;;;1.00;91.20;;;;;;5113873;28;20148;-72
2023/12/01 12:36:31;;;;;;;3.05;1.15;;;1.00;91.20;;;;;;5113772;28;20123;-72
2023/12/01 12:39:00;;;;;;;3.20;1.13;;;1.00;91.20;;;;;;5113984;28;20078;-73
2023/12/01 12:41:31;;;;;;;2.17;1.00;;;1.00;91.20;;;;;;5114971;28;20031;-72
2023/12/01 12:44:01;;;;;;;2.17;0.82;;;1.00;91.20;;;;;;5115273;28;20060;-72
2023/12/01 12:46:29;;;;;;;1.75;0.90;;;0.90;91.20;;;;;;5113599;28;20047;-71
2023/12/01 12:48:59;;;;;;;3.50;1.20;;;0.80;91.20;;;;;;5132722;27;20049;-71
2023/12/01 12:51:26;;;;;;;3.60;1.63;;;0.90;91.30;;;;;;5135032;27;20039;-72
2023/12/01 12:53:53;;;;;;;2.63;1.20;;;0.80;91.30;;;;;;5116762;27;20046;-72
2023/12/01 12:56:21;;;;;;;3.40;1.40;;;0.80;91.30;;;;;;5135486;27;20074;-72
2023/12/01 12:58:48;;;;;;;3.55;1.30;;;0.70;91.30;;;;;;5116892;27;20054;-72
2023/12/01 13:01:14;;;;;;;3.55;1.30;;;0.70;91.30;;;;;;5135504;27;20078;-72